A- A+ FrançaisEnglishEspañol中国

Services sur Internet Soldes sur Internet Des idées de cadeaux Météo Météo aéro

La météo à : Autours de vous Tarbes-Lourdes-PyrénéesAuxerre-Branches Cherbourg-Maupertus Pau-Pyrénées

La météo aéronautique pour les pilotes, la préparation du vol avec les METAR (METeorological Aerodrome Report, message d'observation des conditions météorologiques pour l'aviation) et Les TAF (Terminal Aerodrome Forecast : message de prévision à court terme des conditions météorologiques pour l'aviation). Et les autres ressources comme les VAC (Visual Approch Chart) et les NOTAM (Notice To Airman) pour préprer les vols.

Aéroport Valley (Royaume-Uni) / OACI EGOV/ IATA VLY

L'altitude de l'aéroport Valley est de 11 m = 36 ft. Il est situé à proximité de Angelsey (Royaume-Uni). La météo générale à 5 jours est disponible pour Rhosneigr situé à 2.3 km.

METAR de l'aéroport Valley - EGOV

EGOV 101120Z 19036KT 2800 RADZ FEW003 BKN004 11/11 Q0997 TEMPO 4500 -RADZ BKN005 RMK YLO2 TEMPO YLO1

Décodage du METAR de l'aéroport Valley (GB)

METAR émis par EGOV le mardi 10 décembre 2019 à 11:20 heure TU, il y a 22 minutes.

La visibilité est de 2.8 km = 1.7 sm.

La température est de 11°C = 52 °F et le point rosée est de 11°C = 52 °F . Ce qui correspond à 100% d'humidité relative.

Le QNH est de 997 hPa = 29.44 inHg

Vent de 36 kt = 67 km/h, orienté à 190°.

Nuages : Quelques nuages à 300 ft = 90 mètres. Couverture nuageuse fragmentée à 400 ft = 120 mètres.

RADZ

Temporairement 4500 faible RADZ couverture nuageuse fragmentée à 005 remarques YLO2 temporairement YLO1

TAF de l'aéroport Valley - EGOV

EGOV 101044Z 1012/1020 19038G50KT 4500 -RA BKN005 OVC012

EGOV 101044Z 1012/1020 19038G50KT 4500 faible RA couverture nuageuse fragmentée à 005 couverture nuageuse soudée à 012

Aéroport à proximité de Valley

Météo générale à 5 jours à Rhosneigr (2.3 km)Aéroport Mona (11 km)Aéroport Llanbedr (56 km)Aéroport Ronaldsway (93 km)Aéroport Hawarden (104 km)Aéroport Woodvale (105 km)Aéroport Powerscourt (111 km)

Vue aérienne de l'aéroport Valley

NOTAM de l'aéroport Valley

Les NOTAM sont fournis sans aucune garantie de leur actualité. Le pilote est le seul responsable de la vérification de sa validité avant de l'utiliser opérationnellement pour préparer un vol ou l'utiliser lors de sa navigation.

Pas de NOTAM

Sources des données